sensor_id;sensor_type;location;lat;lon;timestamp;temperature;humidity
8655;DHT22;13500;52.514;13.462;2022-08-19T00:00:03;21.90;99.90
8655;DHT22;13500;52.514;13.462;2022-08-19T00:02:31;22.00;99.90
8655;DHT22;13500;52.514;13.462;2022-08-19T00:05:02;22.00;99.90
8655;DHT22;13500;52.514;13.462;2022-08-19T00:07:30;21.90;99.90
8655;DHT22;13500;52.514;13.462;2022-08-19T00:09:58;21.90;99.90
8655;DHT22;13500;52.514;13.462;2022-08-19T00:12:26;21.90;99.90
8655;DHT22;13500;52.514;13.462;2022-08-19T00:14:54;22.10;99.90
8655;DHT22;13500;52.514;13.462;2022-08-19T00:17:23;22.10;99.90
8655;DHT22;13500;52.514;13.462;2022-08-19T00:19:51;22.10;99.90
8655;DHT22;13500;52.514;13.462;2022-08-19T00:22:20;22.00;99.90
8655;DHT22;13500;52.514;13.462;2022-08-19T00:24:48;22.00;99.90
8655;DHT22;13500;52.514;13.462;2022-08-19T00:27:16;21.90;99.90
8655;DHT22;13500;52.514;13.462;2022-08-19T00:29:52;21.80;99.90
8655;DHT22;13500;52.514;13.462;2022-08-19T00:32:21;21.90;99.90
8655;DHT22;13500;52.514;13.462;2022-08-19T00:34:49;21.90;99.90
8655;DHT22;13500;52.514;13.462;2022-08-19T00:37:22;22.00;99.90
8655;DHT22;13500;52.514;13.462;2022-08-19T00:39:53;22.00;99.90
8655;DHT22;13500;52.514;13.462;2022-08-19T00:42:22;22.00;99.90
8655;DHT22;13500;52.514;13.462;2022-08-19T00:44:50;22.10;99.90
8655;DHT22;13500;52.514;13.462;2022-08-19T00:47:18;22.00;99.90
8655;DHT22;13500;52.514;13.462;2022-08-19T00:49:50;22.00;99.90
8655;DHT22;13500;52.514;13.462;2022-08-19T00:52:22;22.00;99.90
8655;DHT22;13500;52.514;13.462;2022-08-19T00:54:52;21.70;99.90
8655;DHT22;13500;52.514;13.462;2022-08-19T00:57:25;21.40;99.90
8655;DHT22;13500;52.514;13.462;2022-08-19T00:59:56;21.20;99.90
8655;DHT22;13500;52.514;13.462;2022-08-19T01:02:30;21.20;99.90
8655;DHT22;13500;52.514;13.462;2022-08-19T01:05:00;21.00;99.90
8655;DHT22;13500;52.514;13.462;2022-08-19T01:07:30;20.90;99.90
8655;DHT22;13500;52.514;13.462;2022-08-19T01:10:05;20.80;99.90
8655;DHT22;13500;52.514;13.462;2022-08-19T01:12:35;20.70;99.90
8655;DHT22;13500;52.514;13.462;2022-08-19T01:15:05;20.70;99.90
8655;DHT22;13500;52.514;13.462;2022-08-19T01:17:34;20.70;99.90
8655;DHT22;13500;52.514;13.462;2022-08-19T01:20:05;20.80;99.90
8655;DHT22;13500;52.514;13.462;2022-08-19T01:22:38;20.90;99.90
8655;DHT22;13500;52.514;13.462;2022-08-19T01:25:10;20.90;99.90
8655;DHT22;13500;52.514;13.462;2022-08-19T01:27:43;20.80;99.90
8655;DHT22;13500;52.514;13.462;2022-08-19T01:30:15;20.80;99.90
8655;DHT22;13500;52.514;13.462;2022-08-19T01:32:43;20.90;99.90
8655;DHT22;13500;52.514;13.462;2022-08-19T01:35:12;20.90;99.90
8655;DHT22;13500;52.514;13.462;2022-08-19T01:37:47;20.80;99.90
8655;DHT22;13500;52.514;13.462;2022-08-19T01:40:16;20.80;99.90
8655;DHT22;13500;52.514;13.462;2022-08-19T01:42:46;20.70;99.90
8655;DHT22;13500;52.514;13.462;2022-08-19T01:45:15;20.80;99.90
8655;DHT22;13500;52.514;13.462;2022-08-19T01:47:43;20.60;99.90
8655;DHT22;13500;52.514;13.462;2022-08-19T01:50:29;20.50;99.90
8655;DHT22;13500;52.514;13.462;2022-08-19T01:52:59;20.50;99.90
8655;DHT22;13500;52.514;13.462;2022-08-19T01:55:32;20.50;99.90
8655;DHT22;13500;52.514;13.462;2022-08-19T01:58:02;20.40;99.90
8655;DHT22;13500;52.514;13.462;2022-08-19T02:00:32;20.30;99.90
8655;DHT22;13500;52.514;13.462;2022-08-19T02:03:01;20.20;99.90
8655;DHT22;13500;52.514;13.462;2022-08-19T02:05:29;20.00;99.90
8655;DHT22;13500;52.514;13.462;2022-08-19T02:07:59;19.90;99.90
8655;DHT22;13500;52.514;13.462;2022-08-19T02:10:27;19.80;99.90
8655;DHT22;13500;52.514;13.462;2022-08-19T02:12:55;19.70;99.90
8655;DHT22;13500;52.514;13.462;2022-08-19T02:15:23;19.70;99.90
8655;DHT22;13500;52.514;13.462;2022-08-19T02:17:52;19.70;99.90
8655;DHT22;13500;52.514;13.462;2022-08-19T02:20:20;19.80;99.90
8655;DHT22;13500;52.514;13.462;2022-08-19T02:22:49;19.80;99.90
8655;DHT22;13500;52.514;13.462;2022-08-19T02:25:18;19.80;99.90
8655;DHT22;13500;52.514;13.462;2022-08-19T02:27:47;19.70;99.90
8655;DHT22;13500;52.514;13.462;2022-08-19T02:30:17;19.80;99.90
8655;DHT22;13500;52.514;13.462;2022-08-19T02:32:45;19.70;99.90
8655;DHT22;13500;52.514;13.462;2022-08-19T02:35:14;19.80;99.90
8655;DHT22;13500;52.514;13.462;2022-08-19T02:37:43;19.80;99.90
8655;DHT22;13500;52.514;13.462;2022-08-19T02:40:32;19.70;99.90
8655;DHT22;13500;52.514;13.462;2022-08-19T02:43:02;19.70;99.90
8655;DHT22;13500;52.514;13.462;2022-08-19T02:45:32;19.80;99.90
8655;DHT22;13500;52.514;13.462;2022-08-19T02:48:02;19.80;99.90
8655;DHT22;13500;52.514;13.462;2022-08-19T02:50:48;19.90;99.90
8655;DHT22;13500;52.514;13.462;2022-08-19T02:53:19;19.90;99.90
8655;DHT22;13500;52.514;13.462;2022-08-19T02:55:50;20.00;99.90
8655;DHT22;13500;52.514;13.462;2022-08-19T02:58:20;19.90;99.90
8655;DHT22;13500;52.514;13.462;2022-08-19T03:00:52;19.90;99.90
8655;DHT22;13500;52.514;13.462;2022-08-19T03:03:20;20.00;99.90
8655;DHT22;13500;52.514;13.462;2022-08-19T03:05:48;20.00;99.90
8655;DHT22;13500;52.514;13.462;2022-08-19T03:08:23;19.90;99.90
8655;DHT22;13500;52.514;13.462;2022-08-19T03:10:53;20.00;99.90
8655;DHT22;13500;52.514;13.462;2022-08-19T03:13:22;19.90;99.90
8655;DHT22;13500;52.514;13.462;2022-08-19T03:15:51;19.90;99.90
8655;DHT22;13500;52.514;13.462;2022-08-19T03:18:19;19.90;99.90
8655;DHT22;13500;52.514;13.462;2022-08-19T03:20:50;19.80;99.90
8655;DHT22;13500;52.514;13.462;2022-08-19T03:23:19;19.70;99.90
8655;DHT22;13500;52.514;13.462;2022-08-19T03:25:49;19.70;99.90
8655;DHT22;13500;52.514;13.462;2022-08-19T03:28:39;19.70;99.90
8655;DHT22;13500;52.514;13.462;2022-08-19T03:31:13;19.70;99.90
8655;DHT22;13500;52.514;13.462;2022-08-19T03:34:02;19.70;99.90
8655;DHT22;13500;52.514;13.462;2022-08-19T03:36:33;19.60;99.90
8655;DHT22;13500;52.514;13.462;2022-08-19T03:39:02;19.70;99.90
8655;DHT22;13500;52.514;13.462;2022-08-19T03:41:32;19.70;99.90
8655;DHT22;13500;52.514;13.462;2022-08-19T03:44:14;19.60;99.90
8655;DHT22;13500;52.514;13.462;2022-08-19T03:46:46;19.70;99.90
8655;DHT22;13500;52.514;13.462;2022-08-19T03:49:15;19.70;99.90
8655;DHT22;13500;52.514;13.462;2022-08-19T03:51:46;19.70;99.90
8655;DHT22;13500;52.514;13.462;2022-08-19T03:54:16;19.70;99.90
8655;DHT22;13500;52.514;13.462;2022-08-19T03:56:48;19.80;99.90
8655;DHT22;13500;52.514;13.462;2022-08-19T03:59:23;19.80;99.90
8655;DHT22;13500;52.514;13.462;2022-08-19T04:01:53;19.80;99.90
8655;DHT22;13500;52.514;13.462;2022-08-19T04:04:22;19.80;99.90
8655;DHT22;13500;52.514;13.462;2022-08-19T04:06:53;19.80;99.90
8655;DHT22;13500;52.514;13.462;2022-08-19T04:09:21;19.70;99.90
8655;DHT22;13500;52.514;13.462;2022-08-19T04:11:51;19.80;99.90
8655;DHT22;13500;52.514;13.462;2022-08-19T04:14:24;19.80;99.90
8655;DHT22;13500;52.514;13.462;2022-08-19T04:16:52;19.70;99.90
8655;DHT22;13500;52.514;13.462;2022-08-19T04:19:20;19.80;99.90
8655;DHT22;13500;52.514;13.462;2022-08-19T04:21:51;19.80;99.90
8655;DHT22;13500;52.514;13.462;2022-08-19T04:24:20;19.80;99.90
8655;DHT22;13500;52.514;13.462;2022-08-19T04:26:49;19.80;99.90
8655;DHT22;13500;52.514;13.462;2022-08-19T04:29:19;19.90;99.90
8655;DHT22;13500;52.514;13.462;2022-08-19T04:31:50;19.90;99.90
8655;DHT22;13500;52.514;13.462;2022-08-19T04:34:22;20.00;99.90
8655;DHT22;13500;52.514;13.462;2022-08-19T04:36:51;20.00;99.90
8655;DHT22;13500;52.514;13.462;2022-08-19T04:39:22;20.00;99.90
8655;DHT22;13500;52.514;13.462;2022-08-19T04:42:11;20.00;99.90
8655;DHT22;13500;52.514;13.462;2022-08-19T04:44:57;20.00;99.90
8655;DHT22;13500;52.514;13.462;2022-08-19T04:47:28;20.00;99.90
8655;DHT22;13500;52.514;13.462;2022-08-19T04:50:17;20.20;99.90
8655;DHT22;13500;52.514;13.462;2022-08-19T04:52:45;20.20;99.90
8655;DHT22;13500;52.514;13.462;2022-08-19T04:55:14;20.30;99.90
8655;DHT22;13500;52.514;13.462;2022-08-19T04:57:42;20.20;99.90
8655;DHT22;13500;52.514;13.462;2022-08-19T05:00:11;20.30;99.90
8655;DHT22;13500;52.514;13.462;2022-08-19T05:02:40;20.30;99.90
8655;DHT22;13500;52.514;13.462;2022-08-19T05:05:08;20.30;99.90
8655;DHT22;13500;52.514;13.462;2022-08-19T05:07:37;20.30;99.90
8655;DHT22;13500;52.514;13.462;2022-08-19T05:10:07;20.30;99.90
8655;DHT22;13500;52.514;13.462;2022-08-19T05:12:35;20.40;99.90
8655;DHT22;13500;52.514;13.462;2022-08-19T05:15:05;20.40;99.90
8655;DHT22;13500;52.514;13.462;2022-08-19T05:17:35;20.50;99.90
8655;DHT22;13500;52.514;13.462;2022-08-19T05:20:08;20.60;99.90
8655;DHT22;13500;52.514;13.462;2022-08-19T05:22:54;20.60;99.90
8655;DHT22;13500;52.514;13.462;2022-08-19T05:25:22;20.70;99.90
8655;DHT22;13500;52.514;13.462;2022-08-19T05:27:52;20.70;99.90
8655;DHT22;13500;52.514;13.462;2022-08-19T05:30:20;20.90;99.90
8655;DHT22;13500;52.514;13.462;2022-08-19T05:33:08;21.00;99.90
8655;DHT22;13500;52.514;13.462;2022-08-19T05:35:40;21.10;99.90
8655;DHT22;13500;52.514;13.462;2022-08-19T05:38:08;21.30;99.90
8655;DHT22;13500;52.514;13.462;2022-08-19T05:40:38;21.40;99.90
8655;DHT22;13500;52.514;13.462;2022-08-19T05:43:07;21.60;99.90
8655;DHT22;13500;52.514;13.462;2022-08-19T05:45:39;21.80;99.90
8655;DHT22;13500;52.514;13.462;2022-08-19T05:48:09;22.10;99.90
8655;DHT22;13500;52.514;13.462;2022-08-19T05:50:40;22.30;99.90
8655;DHT22;13500;52.514;13.462;2022-08-19T05:53:08;22.50;99.90
8655;DHT22;13500;52.514;13.462;2022-08-19T05:55:37;22.60;99.90
8655;DHT22;13500;52.514;13.462;2022-08-19T05:58:06;22.80;99.90
8655;DHT22;13500;52.514;13.462;2022-08-19T06:00:35;22.90;99.90
8655;DHT22;13500;52.514;13.462;2022-08-19T06:03:03;23.00;99.90
8655;DHT22;13500;52.514;13.462;2022-08-19T06:05:40;23.00;99.90
8655;DHT22;13500;52.514;13.462;2022-08-19T06:08:19;23.10;99.90
8655;DHT22;13500;52.514;13.462;2022-08-19T06:11:12;23.10;99.90
8655;DHT22;13500;52.514;13.462;2022-08-19T06:13:42;23.10;99.90
8655;DHT22;13500;52.514;13.462;2022-08-19T06:16:11;23.00;99.90
8655;DHT22;13500;52.514;13.462;2022-08-19T06:18:39;23.10;99.90
8655;DHT22;13500;52.514;13.462;2022-08-19T06:21:09;23.00;99.90
8655;DHT22;13500;52.514;13.462;2022-08-19T06:23:37;23.10;99.90
8655;DHT22;13500;52.514;13.462;2022-08-19T06:26:05;23.20;99.90
8655;DHT22;13500;52.514;13.462;2022-08-19T06:28:34;23.20;99.90
8655;DHT22;13500;52.514;13.462;2022-08-19T06:31:06;23.10;99.90
8655;DHT22;13500;52.514;13.462;2022-08-19T06:33:34;23.20;99.90
8655;DHT22;13500;52.514;13.462;2022-08-19T06:36:03;23.30;99.90
8655;DHT22;13500;52.514;13.462;2022-08-19T06:38:33;23.40;99.90
8655;DHT22;13500;52.514;13.462;2022-08-19T06:41:02;23.50;99.90
8655;DHT22;13500;52.514;13.462;2022-08-19T06:43:33;23.60;99.90
8655;DHT22;13500;52.514;13.462;2022-08-19T06:46:12;23.60;99.90
8655;DHT22;13500;52.514;13.462;2022-08-19T06:48:41;23.70;99.90
8655;DHT22;13500;52.514;13.462;2022-08-19T06:51:12;23.70;99.90
8655;DHT22;13500;52.514;13.462;2022-08-19T06:53:47;23.70;99.90
8655;DHT22;13500;52.514;13.462;2022-08-19T06:56:23;23.60;99.90
8655;DHT22;13500;52.514;13.462;2022-08-19T06:58:57;23.70;99.90
8655;DHT22;13500;52.514;13.462;2022-08-19T07:01:26;23.70;99.90
8655;DHT22;13500;52.514;13.462;2022-08-19T07:03:54;23.70;99.90
8655;DHT22;13500;52.514;13.462;2022-08-19T07:06:24;23.80;99.90
8655;DHT22;13500;52.514;13.462;2022-08-19T07:09:15;23.80;99.90
8655;DHT22;13500;52.514;13.462;2022-08-19T07:11:49;23.70;99.90
8655;DHT22;13500;52.514;13.462;2022-08-19T07:14:20;23.80;99.90
8655;DHT22;13500;52.514;13.462;2022-08-19T07:16:50;23.70;99.90
8655;DHT22;13500;52.514;13.462;2022-08-19T07:19:19;23.70;99.90
8655;DHT22;13500;52.514;13.462;2022-08-19T07:21:48;23.70;99.90
8655;DHT22;13500;52.514;13.462;2022-08-19T07:24:20;23.80;99.90
8655;DHT22;13500;52.514;13.462;2022-08-19T07:26:51;23.90;99.90
8655;DHT22;13500;52.514;13.462;2022-08-19T07:29:21;23.90;99.90
8655;DHT22;13500;52.514;13.462;2022-08-19T07:31:55;23.90;99.90
8655;DHT22;13500;52.514;13.462;2022-08-19T07:34:28;23.90;99.90
8655;DHT22;13500;52.514;13.462;2022-08-19T07:36:57;23.90;99.90
8655;DHT22;13500;52.514;13.462;2022-08-19T07:39:28;23.90;99.90
8655;DHT22;13500;52.514;13.462;2022-08-19T07:41:58;24.00;99.90
8655;DHT22;13500;52.514;13.462;2022-08-19T07:44:27;24.00;99.90
8655;DHT22;13500;52.514;13.462;2022-08-19T07:46:56;24.00;99.90
8655;DHT22;13500;52.514;13.462;2022-08-19T07:49:25;23.90;99.90
8655;DHT22;13500;52.514;13.462;2022-08-19T07:51:56;23.90;99.90
8655;DHT22;13500;52.514;13.462;2022-08-19T07:54:29;23.80;99.90
8655;DHT22;13500;52.514;13.462;2022-08-19T07:56:58;23.80;99.90
8655;DHT22;13500;52.514;13.462;2022-08-19T07:59:26;23.80;99.90
8655;DHT22;13500;52.514;13.462;2022-08-19T08:01:56;23.80;99.90
8655;DHT22;13500;52.514;13.462;2022-08-19T08:04:27;23.80;99.90
8655;DHT22;13500;52.514;13.462;2022-08-19T08:07:13;23.70;99.90
8655;DHT22;13500;52.514;13.462;2022-08-19T08:10:00;23.80;99.90
8655;DHT22;13500;52.514;13.462;2022-08-19T08:12:34;23.90;99.90
8655;DHT22;13500;52.514;13.462;2022-08-19T08:15:10;24.00;99.90
8655;DHT22;13500;52.514;13.462;2022-08-19T08:17:38;24.10;99.90
8655;DHT22;13500;52.514;13.462;2022-08-19T08:20:16;23.90;99.90
8655;DHT22;13500;52.514;13.462;2022-08-19T08:22:45;24.00;99.90
8655;DHT22;13500;52.514;13.462;2022-08-19T08:25:34;24.00;99.90
8655;DHT22;13500;52.514;13.462;2022-08-19T08:28:04;23.80;99.90
8655;DHT22;13500;52.514;13.462;2022-08-19T08:30:32;23.80;99.90
8655;DHT22;13500;52.514;13.462;2022-08-19T08:33:03;24.00;99.90
8655;DHT22;13500;52.514;13.462;2022-08-19T08:35:32;24.10;99.90
8655;DHT22;13500;52.514;13.462;2022-08-19T08:38:01;24.20;99.90
8655;DHT22;13500;52.514;13.462;2022-08-19T08:40:39;24.70;99.90
8655;DHT22;13500;52.514;13.462;2022-08-19T08:43:18;25.00;99.90
8655;DHT22;13500;52.514;13.462;2022-08-19T08:45:53;25.50;99.90
8655;DHT22;13500;52.514;13.462;2022-08-19T08:48:30;25.80;99.90
8655;DHT22;13500;52.514;13.462;2022-08-19T08:51:03;26.30;99.90
8655;DHT22;13500;52.514;13.462;2022-08-19T08:53:35;26.60;99.90
8655;DHT22;13500;52.514;13.462;2022-08-19T08:56:10;26.40;99.90
8655;DHT22;13500;52.514;13.462;2022-08-19T08:58:51;26.30;99.90
8655;DHT22;13500;52.514;13.462;2022-08-19T09:01:22;25.80;99.90
8655;DHT22;13500;52.514;13.462;2022-08-19T09:03:56;25.60;99.90
8655;DHT22;13500;52.514;13.462;2022-08-19T09:06:34;25.20;99.90
8655;DHT22;13500;52.514;13.462;2022-08-19T09:09:14;25.30;99.90
8655;DHT22;13500;52.514;13.462;2022-08-19T09:11:54;25.10;99.90
8655;DHT22;13500;52.514;13.462;2022-08-19T09:14:34;25.20;99.90
8655;DHT22;13500;52.514;13.462;2022-08-19T09:17:20;25.30;99.90
8655;DHT22;13500;52.514;13.462;2022-08-19T09:19:57;25.40;99.90
8655;DHT22;13500;52.514;13.462;2022-08-19T09:22:27;25.30;99.90
8655;DHT22;13500;52.514;13.462;2022-08-19T09:24:56;25.20;99.90
8655;DHT22;13500;52.514;13.462;2022-08-19T09:27:26;25.10;99.90
8655;DHT22;13500;52.514;13.462;2022-08-19T09:30:12;25.50;99.90
8655;DHT22;13500;52.514;13.462;2022-08-19T09:32:42;26.20;99.90
8655;DHT22;13500;52.514;13.462;2022-08-19T09:35:13;26.10;99.90
8655;DHT22;13500;52.514;13.462;2022-08-19T09:37:42;26.20;99.90
8655;DHT22;13500;52.514;13.462;2022-08-19T09:40:11;26.00;99.90
8655;DHT22;13500;52.514;13.462;2022-08-19T09:42:43;26.00;99.90
8655;DHT22;13500;52.514;13.462;2022-08-19T09:45:18;26.20;99.90
8655;DHT22;13500;52.514;13.462;2022-08-19T09:47:49;26.20;99.90
8655;DHT22;13500;52.514;13.462;2022-08-19T09:50:22;25.90;99.90
8655;DHT22;13500;52.514;13.462;2022-08-19T09:52:50;26.10;99.90
8655;DHT22;13500;52.514;13.462;2022-08-19T09:55:24;26.20;99.90
8655;DHT22;13500;52.514;13.462;2022-08-19T09:58:01;25.90;99.90
8655;DHT22;13500;52.514;13.462;2022-08-19T10:00:29;25.80;99.90
8655;DHT22;13500;52.514;13.462;2022-08-19T10:02:58;25.80;99.90
8655;DHT22;13500;52.514;13.462;2022-08-19T10:05:27;25.70;99.90
8655;DHT22;13500;52.514;13.462;2022-08-19T10:08:15;25.50;99.90
8655;DHT22;13500;52.514;13.462;2022-08-19T10:10:44;25.50;99.90
8655;DHT22;13500;52.514;13.462;2022-08-19T10:13:18;25.60;99.90
8655;DHT22;13500;52.514;13.462;2022-08-19T10:15:48;25.50;99.90
8655;DHT22;13500;52.514;13.462;2022-08-19T10:18:19;25.40;99.90
8655;DHT22;13500;52.514;13.462;2022-08-19T10:20:49;25.20;99.90
8655;DHT22;13500;52.514;13.462;2022-08-19T10:23:19;25.20;99.90
8655;DHT22;13500;52.514;13.462;2022-08-19T10:25:48;25.00;99.90
8655;DHT22;13500;52.514;13.462;2022-08-19T10:28:21;25.10;99.90
8655;DHT22;13500;52.514;13.462;2022-08-19T10:30:49;25.10;99.90
8655;DHT22;13500;52.514;13.462;2022-08-19T10:33:18;25.10;99.90
8655;DHT22;13500;52.514;13.462;2022-08-19T10:36:08;25.20;99.90
8655;DHT22;13500;52.514;13.462;2022-08-19T10:38:37;25.40;99.90
8655;DHT22;13500;52.514;13.462;2022-08-19T10:41:21;25.50;99.90
8655;DHT22;13500;52.514;13.462;2022-08-19T10:43:52;25.80;99.90
8655;DHT22;13500;52.514;13.462;2022-08-19T10:46:22;25.40;99.90
8655;DHT22;13500;52.514;13.462;2022-08-19T10:48:51;25.30;99.90
8655;DHT22;13500;52.514;13.462;2022-08-19T10:51:19;25.40;99.90
8655;DHT22;13500;52.514;13.462;2022-08-19T10:54:15;25.50;99.90
8655;DHT22;13500;52.514;13.462;2022-08-19T10:56:57;25.30;99.90
8655;DHT22;13500;52.514;13.462;2022-08-19T10:59:27;25.20;99.90
8655;DHT22;13500;52.514;13.462;2022-08-19T11:02:04;25.10;99.90
8655;DHT22;13500;52.514;13.462;2022-08-19T11:04:33;25.10;99.90
8655;DHT22;13500;52.514;13.462;2022-08-19T11:07:02;25.00;99.90
8655;DHT22;13500;52.514;13.462;2022-08-19T11:09:31;24.90;99.90
8655;DHT22;13500;52.514;13.462;2022-08-19T11:12:05;24.70;99.90
8655;DHT22;13500;52.514;13.462;2022-08-19T11:14:35;24.90;99.90
8655;DHT22;13500;52.514;13.462;2022-08-19T11:17:04;24.80;99.90
8655;DHT22;13500;52.514;13.462;2022-08-19T11:19:34;24.90;99.90
8655;DHT22;13500;52.514;13.462;2022-08-19T11:22:02;24.80;99.90
8655;DHT22;13500;52.514;13.462;2022-08-19T11:24:31;24.80;99.90
8655;DHT22;13500;52.514;13.462;2022-08-19T11:27:04;24.70;99.90
8655;DHT22;13500;52.514;13.462;2022-08-19T11:29:37;24.70;99.90
8655;DHT22;13500;52.514;13.462;2022-08-19T11:32:08;24.40;99.90
8655;DHT22;13500;52.514;13.462;2022-08-19T11:34:37;24.60;99.90
8655;DHT22;13500;52.514;13.462;2022-08-19T11:37:05;24.80;99.90
8655;DHT22;13500;52.514;13.462;2022-08-19T11:39:36;25.00;99.90
8655;DHT22;13500;52.514;13.462;2022-08-19T11:42:06;25.10;99.90
8655;DHT22;13500;52.514;13.462;2022-08-19T11:44:50;25.00;99.90
8655;DHT22;13500;52.514;13.462;2022-08-19T11:47:19;24.90;99.90
8655;DHT22;13500;52.514;13.462;2022-08-19T11:49:47;25.00;99.90
8655;DHT22;13500;52.514;13.462;2022-08-19T11:52:15;25.10;99.90
8655;DHT22;13500;52.514;13.462;2022-08-19T11:54:43;25.10;99.90
8655;DHT22;13500;52.514;13.462;2022-08-19T11:57:11;25.40;99.90
8655;DHT22;13500;52.514;13.462;2022-08-19T11:59:41;25.40;99.90
8655;DHT22;13500;52.514;13.462;2022-08-19T12:02:10;25.40;99.90
8655;DHT22;13500;52.514;13.462;2022-08-19T12:04:39;25.50;99.90
8655;DHT22;13500;52.514;13.462;2022-08-19T12:07:07;25.00;99.90
8655;DHT22;13500;52.514;13.462;2022-08-19T12:09:35;25.20;99.90
8655;DHT22;13500;52.514;13.462;2022-08-19T12:12:09;25.00;99.90
8655;DHT22;13500;52.514;13.462;2022-08-19T12:14:37;24.80;99.90
8655;DHT22;13500;52.514;13.462;2022-08-19T12:17:05;24.80;99.90
8655;DHT22;13500;52.514;13.462;2022-08-19T12:19:37;25.10;99.90
8655;DHT22;13500;52.514;13.462;2022-08-19T12:22:06;25.20;99.90
8655;DHT22;13500;52.514;13.462;2022-08-19T12:24:34;25.40;99.90
8655;DHT22;13500;52.514;13.462;2022-08-19T12:27:02;25.40;99.90
8655;DHT22;13500;52.514;13.462;2022-08-19T12:29:34;25.50;99.90
8655;DHT22;13500;52.514;13.462;2022-08-19T12:32:03;25.60;99.90
8655;DHT22;13500;52.514;13.462;2022-08-19T12:34:32;25.30;99.90
8655;DHT22;13500;52.514;13.462;2022-08-19T12:37:04;25.50;99.90
8655;DHT22;13500;52.514;13.462;2022-08-19T12:39:35;25.50;99.90
8655;DHT22;13500;52.514;13.462;2022-08-19T12:42:04;25.70;99.90
8655;DHT22;13500;52.514;13.462;2022-08-19T12:44:32;25.90;99.90
8655;DHT22;13500;52.514;13.462;2022-08-19T12:47:02;25.50;99.90
8655;DHT22;13500;52.514;13.462;2022-08-19T12:49:34;25.50;99.90
8655;DHT22;13500;52.514;13.462;2022-08-19T12:52:23;25.50;99.90
8655;DHT22;13500;52.514;13.462;2022-08-19T12:54:54;25.50;99.90
8655;DHT22;13500;52.514;13.462;2022-08-19T12:57:24;25.40;99.90
8655;DHT22;13500;52.514;13.462;2022-08-19T13:00:01;25.50;99.90
8655;DHT22;13500;52.514;13.462;2022-08-19T13:02:31;25.60;99.90
8655;DHT22;13500;52.514;13.462;2022-08-19T13:05:06;25.50;99.90
8655;DHT22;13500;52.514;13.462;2022-08-19T13:07:37;25.50;99.90
8655;DHT22;13500;52.514;13.462;2022-08-19T13:10:06;25.80;99.90
8655;DHT22;13500;52.514;13.462;2022-08-19T13:12:35;25.90;99.90
8655;DHT22;13500;52.514;13.462;2022-08-19T13:15:04;25.60;99.90
8655;DHT22;13500;52.514;13.462;2022-08-19T13:17:38;25.40;99.90
8655;DHT22;13500;52.514;13.462;2022-08-19T13:20:07;25.50;99.90
8655;DHT22;13500;52.514;13.462;2022-08-19T13:22:37;25.70;99.90
8655;DHT22;13500;52.514;13.462;2022-08-19T13:25:07;25.50;99.90
8655;DHT22;13500;52.514;13.462;2022-08-19T13:27:36;25.70;99.90
8655;DHT22;13500;52.514;13.462;2022-08-19T13:30:07;25.80;99.90
8655;DHT22;13500;52.514;13.462;2022-08-19T13:32:54;26.00;99.90
8655;DHT22;13500;52.514;13.462;2022-08-19T13:35:45;26.10;99.90
8655;DHT22;13500;52.514;13.462;2022-08-19T13:38:21;26.10;99.90
8655;DHT22;13500;52.514;13.462;2022-08-19T13:40:51;26.30;99.90
8655;DHT22;13500;52.514;13.462;2022-08-19T13:43:24;26.30;99.90
8655;DHT22;13500;52.514;13.462;2022-08-19T13:45:54;26.50;99.90
8655;DHT22;13500;52.514;13.462;2022-08-19T13:48:25;26.60;99.90
8655;DHT22;13500;52.514;13.462;2022-08-19T13:50:54;26.20;99.90
8655;DHT22;13500;52.514;13.462;2022-08-19T13:53:24;26.30;99.90
8655;DHT22;13500;52.514;13.462;2022-08-19T13:55:53;25.90;99.90
8655;DHT22;13500;52.514;13.462;2022-08-19T13:58:21;26.00;99.90
8655;DHT22;13500;52.514;13.462;2022-08-19T14:00:49;25.90;99.90
8655;DHT22;13500;52.514;13.462;2022-08-19T14:03:18;25.80;99.90
8655;DHT22;13500;52.514;13.462;2022-08-19T14:05:46;25.80;99.90
8655;DHT22;13500;52.514;13.462;2022-08-19T14:08:14;25.70;99.90
8655;DHT22;13500;52.514;13.462;2022-08-19T14:10:44;25.80;99.90
8655;DHT22;13500;52.514;13.462;2022-08-19T14:13:15;25.60;99.90
8655;DHT22;13500;52.514;13.462;2022-08-19T14:15:44;25.50;99.90
8655;DHT22;13500;52.514;13.462;2022-08-19T14:18:14;25.40;99.90
8655;DHT22;13500;52.514;13.462;2022-08-19T14:20:42;25.20;99.90
8655;DHT22;13500;52.514;13.462;2022-08-19T14:23:11;25.30;99.90
8655;DHT22;13500;52.514;13.462;2022-08-19T14:25:40;25.20;99.90
8655;DHT22;13500;52.514;13.462;2022-08-19T14:28:10;25.30;99.90
8655;DHT22;13500;52.514;13.462;2022-08-19T14:30:38;25.20;99.90
8655;DHT22;13500;52.514;13.462;2022-08-19T14:33:06;25.10;99.90
8655;DHT22;13500;52.514;13.462;2022-08-19T14:35:35;25.10;99.90
8655;DHT22;13500;52.514;13.462;2022-08-19T14:38:05;25.20;99.90
8655;DHT22;13500;52.514;13.462;2022-08-19T14:40:34;25.30;99.90
8655;DHT22;13500;52.514;13.462;2022-08-19T14:43:03;25.40;99.90
8655;DHT22;13500;52.514;13.462;2022-08-19T14:45:36;25.40;99.90
8655;DHT22;13500;52.514;13.462;2022-08-19T14:48:08;25.40;99.90
8655;DHT22;13500;52.514;13.462;2022-08-19T14:50:44;25.40;99.90
8655;DHT22;13500;52.514;13.462;2022-08-19T14:53:12;25.30;99.90
8655;DHT22;13500;52.514;13.462;2022-08-19T14:55:41;25.10;99.90
8655;DHT22;13500;52.514;13.462;2022-08-19T14:58:10;25.00;99.90
8655;DHT22;13500;52.514;13.462;2022-08-19T15:00:58;24.90;99.90
8655;DHT22;13500;52.514;13.462;2022-08-19T15:03:27;24.80;99.90
8655;DHT22;13500;52.514;13.462;2022-08-19T15:05:55;24.70;99.90
8655;DHT22;13500;52.514;13.462;2022-08-19T15:08:24;24.80;99.90
8655;DHT22;13500;52.514;13.462;2022-08-19T15:10:53;24.80;99.90
8655;DHT22;13500;52.514;13.462;2022-08-19T15:13:21;24.90;99.90
8655;DHT22;13500;52.514;13.462;2022-08-19T15:15:51;24.90;99.90
8655;DHT22;13500;52.514;13.462;2022-08-19T15:18:20;24.80;99.90
8655;DHT22;13500;52.514;13.462;2022-08-19T15:20:49;24.60;99.90
8655;DHT22;13500;52.514;13.462;2022-08-19T15:23:18;24.60;99.90
8655;DHT22;13500;52.514;13.462;2022-08-19T15:25:48;24.50;99.90
8655;DHT22;13500;52.514;13.462;2022-08-19T15:28:18;24.50;99.90
8655;DHT22;13500;52.514;13.462;2022-08-19T15:30:47;24.40;99.90
8655;DHT22;13500;52.514;13.462;2022-08-19T15:33:16;24.30;99.90
8655;DHT22;13500;52.514;13.462;2022-08-19T15:35:48;24.40;99.90
8655;DHT22;13500;52.514;13.462;2022-08-19T15:38:18;24.50;99.90
8655;DHT22;13500;52.514;13.462;2022-08-19T15:40:48;24.50;99.90
8655;DHT22;13500;52.514;13.462;2022-08-19T15:43:18;24.50;99.90
8655;DHT22;13500;52.514;13.462;2022-08-19T15:45:47;24.50;99.90
8655;DHT22;13500;52.514;13.462;2022-08-19T15:48:15;24.40;99.90
8655;DHT22;13500;52.514;13.462;2022-08-19T15:50:44;24.30;99.90
8655;DHT22;13500;52.514;13.462;2022-08-19T15:53:13;24.10;99.90
8655;DHT22;13500;52.514;13.462;2022-08-19T15:55:43;24.00;99.90